This is the latest recevied weather packets stored in our database for station/object DG4DAA-13. If no packets are shown the sender has not sent any weather packets the latest 10 day(s).
| Time | Temp. | Humidity | Pressure | Rain* | Wind** | Luminosity | Snow |
|---|---|---|---|---|---|---|---|
| 1777187326 | 8.33° C | 71% | 1028.4 hPa | 0 mm | - | - | - |
| 1777183726 | 7.78° C | 79% | 1027.7 hPa | 0 mm | - | - | - |
| 1777181926 | 5.56° C | 89% | 1027.5 hPa | 0 mm | - | - | - |
| 1777180126 | 2.22° C | 90% | 1027.2 hPa | 0 mm | - | - | - |
| 1777178327 | 1.67° C | 88% | 1026.8 hPa | 0 mm | - | - | - |
| 1777176527 | 2.22° C | 88% | 1026.5 hPa | 0 mm | - | - | - |
| 1777174727 | 2.22° C | 88% | 1026.4 hPa | 0 mm | - | - | - |
| 1777172927 | 2.78° C | 87% | 1026.2 hPa | 0 mm | - | - | - |
| 1777171127 | 2.78° C | 87% | 1026.1 hPa | 0 mm | - | - | - |
| 1777169327 | 3.33° C | 86% | 1025.9 hPa | 0 mm | - | - | - |
| 1777167527 | 3.89° C | 84% | 1025.7 hPa | 0 mm | - | - | - |
| 1777165727 | 4.44° C | 83% | 1025.5 hPa | 0 mm | - | - | - |
| 1777163928 | 5.56° C | 81% | 1025.2 hPa | 0 mm | - | - | - |
| 1777162127 | 6.11° C | 80% | 1025.2 hPa | 0 mm | - | - | - |
| 1777160328 | 7.22° C | 77% | 1024.9 hPa | 0 mm | - | - | - |
| 1777158527 | 7.78° C | 75% | 1024.5 hPa | 0 mm | - | - | - |
| 1777156727 | 8.89° C | 74% | 1024.1 hPa | 0 mm | - | - | - |
| 1777154927 | 10° C | 68% | 1023.5 hPa | 0 mm | - | - | - |
| 1777153127 | 10° C | 66% | 1023.1 hPa | 0 mm | - | - | - |
| 1777151327 | 11.11° C | 64% | 1022.8 hPa | 0 mm | - | - | - |
| 1777149527 | 11.67° C | 63% | 1022.8 hPa | 0 mm | - | - | - |
| 1777147729 | 11.67° C | 60% | 1022.3 hPa | 0 mm | - | - | - |
| 1777145928 | 12.22° C | 55% | 1022.1 hPa | 0 mm | - | - | - |
| 1777144128 | 13.33° C | 51% | 1021.6 hPa | 0 mm | - | - | - |
| 1777142328 | 14.44° C | 45% | 1021.3 hPa | 0 mm | - | - | - |
* Rain latest hour (hover to see other rain measurements)
** Current wind speed in m/s (hover to see current wind gust speed)